sensor_id;sensor_type;location;lat;lon;timestamp;pressure;altitude;pressure_sealevel;temperature;humidity
13661;BME280;6903;49.480;11.102;2022-07-21T00:02:02;98150.06;;;25.58;100.00
13661;BME280;6903;49.480;11.102;2022-07-21T00:04:27;98138.47;;;25.51;100.00
13661;BME280;6903;49.480;11.102;2022-07-21T00:06:53;98142.41;;;25.49;100.00
13661;BME280;6903;49.480;11.102;2022-07-21T00:09:18;98160.94;;;25.39;100.00
13661;BME280;6903;49.480;11.102;2022-07-21T00:11:44;98163.22;;;25.35;100.00
13661;BME280;6903;49.480;11.102;2022-07-21T00:14:10;98148.47;;;25.38;100.00
13661;BME280;6903;49.480;11.102;2022-07-21T00:16:37;98159.47;;;25.36;100.00
13661;BME280;6903;49.480;11.102;2022-07-21T00:19:03;98162.38;;;25.28;100.00
13661;BME280;6903;49.480;11.102;2022-07-21T00:21:28;98168.59;;;25.22;100.00
13661;BME280;6903;49.480;11.102;2022-07-21T00:23:54;98165.06;;;25.22;100.00
13661;BME280;6903;49.480;11.102;2022-07-21T00:26:20;98171.31;;;25.16;100.00
13661;BME280;6903;49.480;11.102;2022-07-21T00:28:45;98183.34;;;25.20;100.00
13661;BME280;6903;49.480;11.102;2022-07-21T00:31:10;98173.16;;;25.15;100.00
13661;BME280;6903;49.480;11.102;2022-07-21T00:33:36;98170.47;;;25.15;100.00
13661;BME280;6903;49.480;11.102;2022-07-21T00:36:01;98165.91;;;25.09;100.00
13661;BME280;6903;49.480;11.102;2022-07-21T00:38:27;98157.59;;;25.04;100.00
13661;BME280;6903;49.480;11.102;2022-07-21T00:40:53;98155.13;;;25.02;100.00
13661;BME280;6903;49.480;11.102;2022-07-21T00:43:19;98130.63;;;25.04;100.00
13661;BME280;6903;49.480;11.102;2022-07-21T00:45:44;98124.38;;;25.03;100.00
13661;BME280;6903;49.480;11.102;2022-07-21T00:48:09;98131.47;;;25.04;100.00
13661;BME280;6903;49.480;11.102;2022-07-21T00:50:35;98101.97;;;25.09;100.00
13661;BME280;6903;49.480;11.102;2022-07-21T00:53:00;98079.13;;;25.05;100.00
13661;BME280;6903;49.480;11.102;2022-07-21T00:55:25;98048.44;;;24.93;100.00
13661;BME280;6903;49.480;11.102;2022-07-21T00:57:52;98057.16;;;24.82;100.00
13661;BME280;6903;49.480;11.102;2022-07-21T01:00:25;98039.31;;;24.81;100.00
13661;BME280;6903;49.480;11.102;2022-07-21T01:02:51;98030.41;;;24.68;100.00
13661;BME280;6903;49.480;11.102;2022-07-21T01:05:17;98024.59;;;24.64;100.00
13661;BME280;6903;49.480;11.102;2022-07-21T01:07:46;98036.41;;;24.57;100.00
13661;BME280;6903;49.480;11.102;2022-07-21T01:10:13;98025.41;;;24.39;100.00
13661;BME280;6903;49.480;11.102;2022-07-21T01:12:39;98030.38;;;24.16;100.00
13661;BME280;6903;49.480;11.102;2022-07-21T01:15:06;98033.00;;;23.96;100.00
13661;BME280;6903;49.480;11.102;2022-07-21T01:17:33;98037.47;;;23.69;100.00
13661;BME280;6903;49.480;11.102;2022-07-21T01:20:02;98012.09;;;23.38;100.00
13661;BME280;6903;49.480;11.102;2022-07-21T01:22:28;97973.22;;;23.06;100.00
13661;BME280;6903;49.480;11.102;2022-07-21T01:24:53;98020.97;;;22.70;100.00
13661;BME280;6903;49.480;11.102;2022-07-21T01:27:19;98061.25;;;22.42;100.00
13661;BME280;6903;49.480;11.102;2022-07-21T01:29:44;98057.56;;;22.22;100.00
13661;BME280;6903;49.480;11.102;2022-07-21T01:32:09;98045.19;;;22.07;100.00
13661;BME280;6903;49.480;11.102;2022-07-21T01:34:35;98052.66;;;22.05;100.00
13661;BME280;6903;49.480;11.102;2022-07-21T01:37:00;98056.22;;;22.12;100.00
13661;BME280;6903;49.480;11.102;2022-07-21T01:39:25;98052.84;;;22.03;100.00
13661;BME280;6903;49.480;11.102;2022-07-21T01:42:09;98046.09;;;21.93;100.00
13661;BME280;6903;49.480;11.102;2022-07-21T01:44:35;98046.47;;;21.90;100.00
13661;BME280;6903;49.480;11.102;2022-07-21T01:47:00;98047.91;;;21.86;100.00
13661;BME280;6903;49.480;11.102;2022-07-21T01:49:25;98053.28;;;21.86;100.00
13661;BME280;6903;49.480;11.102;2022-07-21T01:51:51;98049.28;;;21.82;100.00
13661;BME280;6903;49.480;11.102;2022-07-21T01:54:17;98046.69;;;21.88;100.00
13661;BME280;6903;49.480;11.102;2022-07-21T01:56:42;98051.78;;;21.83;100.00
13661;BME280;6903;49.480;11.102;2022-07-21T01:59:07;98045.22;;;21.71;100.00
13661;BME280;6903;49.480;11.102;2022-07-21T02:01:34;98046.91;;;21.58;100.00
13661;BME280;6903;49.480;11.102;2022-07-21T02:04:01;98046.75;;;21.45;100.00
13661;BME280;6903;49.480;11.102;2022-07-21T02:06:28;98038.06;;;21.43;100.00
13661;BME280;6903;49.480;11.102;2022-07-21T02:08:53;98032.06;;;21.41;100.00
13661;BME280;6903;49.480;11.102;2022-07-21T02:11:19;98024.00;;;21.41;100.00
13661;BME280;6903;49.480;11.102;2022-07-21T02:13:45;98028.44;;;21.34;100.00
13661;BME280;6903;49.480;11.102;2022-07-21T02:16:11;98031.59;;;21.37;100.00
13661;BME280;6903;49.480;11.102;2022-07-21T02:18:36;98039.47;;;21.39;100.00
13661;BME280;6903;49.480;11.102;2022-07-21T02:21:03;98045.63;;;21.39;100.00
13661;BME280;6903;49.480;11.102;2022-07-21T02:23:29;98042.94;;;21.39;100.00
13661;BME280;6903;49.480;11.102;2022-07-21T02:25:54;98028.91;;;21.37;100.00
13661;BME280;6903;49.480;11.102;2022-07-21T02:28:22;98036.59;;;21.40;100.00
13661;BME280;6903;49.480;11.102;2022-07-21T02:30:48;98030.19;;;21.41;100.00
13661;BME280;6903;49.480;11.102;2022-07-21T02:33:14;98041.00;;;21.48;100.00
13661;BME280;6903;49.480;11.102;2022-07-21T02:35:40;98027.47;;;21.56;100.00
13661;BME280;6903;49.480;11.102;2022-07-21T02:38:06;98033.50;;;21.58;100.00
13661;BME280;6903;49.480;11.102;2022-07-21T02:40:32;98038.09;;;21.64;100.00
13661;BME280;6903;49.480;11.102;2022-07-21T02:42:58;98044.56;;;21.69;100.00
13661;BME280;6903;49.480;11.102;2022-07-21T02:45:23;98061.59;;;21.76;100.00
13661;BME280;6903;49.480;11.102;2022-07-21T02:47:56;98066.44;;;21.81;100.00
13661;BME280;6903;49.480;11.102;2022-07-21T02:50:25;98081.19;;;21.91;100.00
13661;BME280;6903;49.480;11.102;2022-07-21T02:52:54;98089.13;;;21.99;100.00
13661;BME280;6903;49.480;11.102;2022-07-21T02:55:21;98084.03;;;22.04;100.00
13661;BME280;6903;49.480;11.102;2022-07-21T02:57:46;98090.84;;;22.07;100.00
13661;BME280;6903;49.480;11.102;2022-07-21T03:00:12;98100.59;;;22.08;100.00
13661;BME280;6903;49.480;11.102;2022-07-21T03:02:37;98095.09;;;22.16;100.00
13661;BME280;6903;49.480;11.102;2022-07-21T03:05:03;98097.03;;;22.22;100.00
13661;BME280;6903;49.480;11.102;2022-07-21T03:07:29;98115.91;;;22.28;100.00
13661;BME280;6903;49.480;11.102;2022-07-21T03:09:54;98119.22;;;22.30;100.00
13661;BME280;6903;49.480;11.102;2022-07-21T03:12:20;98121.34;;;22.35;100.00
13661;BME280;6903;49.480;11.102;2022-07-21T03:14:45;98116.47;;;22.45;100.00
13661;BME280;6903;49.480;11.102;2022-07-21T03:17:10;98123.91;;;22.43;100.00
13661;BME280;6903;49.480;11.102;2022-07-21T03:19:36;98128.50;;;22.49;100.00
13661;BME280;6903;49.480;11.102;2022-07-21T03:22:01;98141.94;;;22.49;100.00
13661;BME280;6903;49.480;11.102;2022-07-21T03:24:27;98166.13;;;22.49;100.00
13661;BME280;6903;49.480;11.102;2022-07-21T03:26:52;98165.47;;;22.47;100.00
13661;BME280;6903;49.480;11.102;2022-07-21T03:29:17;98152.03;;;22.47;100.00
13661;BME280;6903;49.480;11.102;2022-07-21T03:31:43;98174.13;;;22.42;100.00
13661;BME280;6903;49.480;11.102;2022-07-21T03:34:08;98181.69;;;22.32;100.00
13661;BME280;6903;49.480;11.102;2022-07-21T03:36:33;98190.81;;;22.38;100.00
13661;BME280;6903;49.480;11.102;2022-07-21T03:38:59;98199.78;;;22.45;100.00
13661;BME280;6903;49.480;11.102;2022-07-21T03:41:24;98199.78;;;22.45;100.00
13661;BME280;6903;49.480;11.102;2022-07-21T03:43:49;98209.03;;;22.57;100.00
13661;BME280;6903;49.480;11.102;2022-07-21T03:46:15;98226.84;;;22.58;100.00
13661;BME280;6903;49.480;11.102;2022-07-21T03:48:40;98226.84;;;22.58;100.00
13661;BME280;6903;49.480;11.102;2022-07-21T03:51:05;98221.84;;;22.55;100.00
13661;BME280;6903;49.480;11.102;2022-07-21T03:53:31;98207.38;;;22.56;100.00
13661;BME280;6903;49.480;11.102;2022-07-21T03:55:56;98207.84;;;22.60;100.00
13661;BME280;6903;49.480;11.102;2022-07-21T03:58:22;98221.78;;;22.70;100.00
13661;BME280;6903;49.480;11.102;2022-07-21T04:00:47;98213.84;;;22.83;100.00
13661;BME280;6903;49.480;11.102;2022-07-21T04:03:13;98207.47;;;22.84;100.00
13661;BME280;6903;49.480;11.102;2022-07-21T04:05:39;98209.69;;;22.80;100.00
13661;BME280;6903;49.480;11.102;2022-07-21T04:08:06;98217.25;;;22.70;100.00
13661;BME280;6903;49.480;11.102;2022-07-21T04:10:34;98199.19;;;22.64;100.00
13661;BME280;6903;49.480;11.102;2022-07-21T04:13:02;98206.34;;;22.57;100.00
13661;BME280;6903;49.480;11.102;2022-07-21T04:15:28;98201.38;;;22.39;100.00
13661;BME280;6903;49.480;11.102;2022-07-21T04:17:54;98202.81;;;22.21;100.00
13661;BME280;6903;49.480;11.102;2022-07-21T04:20:20;98195.53;;;22.00;100.00
13661;BME280;6903;49.480;11.102;2022-07-21T04:22:46;98195.09;;;21.82;100.00
13661;BME280;6903;49.480;11.102;2022-07-21T04:25:13;98195.91;;;21.83;100.00
13661;BME280;6903;49.480;11.102;2022-07-21T04:27:39;98206.56;;;21.76;100.00
13661;BME280;6903;49.480;11.102;2022-07-21T04:30:06;98219.63;;;21.79;100.00
13661;BME280;6903;49.480;11.102;2022-07-21T04:32:32;98235.38;;;21.82;100.00
13661;BME280;6903;49.480;11.102;2022-07-21T04:34:58;98244.16;;;21.76;100.00
13661;BME280;6903;49.480;11.102;2022-07-21T04:37:23;98260.25;;;21.76;100.00
13661;BME280;6903;49.480;11.102;2022-07-21T04:39:49;98260.78;;;21.72;100.00
13661;BME280;6903;49.480;11.102;2022-07-21T04:42:14;98273.53;;;21.70;100.00
13661;BME280;6903;49.480;11.102;2022-07-21T04:44:39;98278.91;;;21.70;100.00
13661;BME280;6903;49.480;11.102;2022-07-21T04:47:05;98282.91;;;21.74;100.00
13661;BME280;6903;49.480;11.102;2022-07-21T04:49:30;98286.75;;;21.79;100.00
13661;BME280;6903;49.480;11.102;2022-07-21T04:51:56;98296.00;;;21.77;100.00
13661;BME280;6903;49.480;11.102;2022-07-21T04:54:21;98291.28;;;21.79;100.00
13661;BME280;6903;49.480;11.102;2022-07-21T04:56:46;98265.97;;;21.73;100.00
13661;BME280;6903;49.480;11.102;2022-07-21T04:59:12;98258.28;;;21.70;100.00
13661;BME280;6903;49.480;11.102;2022-07-21T05:01:38;98267.63;;;21.60;100.00
13661;BME280;6903;49.480;11.102;2022-07-21T05:04:05;98280.88;;;21.61;100.00
13661;BME280;6903;49.480;11.102;2022-07-21T05:06:30;98277.72;;;21.58;100.00
13661;BME280;6903;49.480;11.102;2022-07-21T05:08:56;98277.16;;;21.62;100.00
13661;BME280;6903;49.480;11.102;2022-07-21T05:11:21;98287.72;;;21.64;100.00
13661;BME280;6903;49.480;11.102;2022-07-21T05:13:46;98291.03;;;21.66;100.00
13661;BME280;6903;49.480;11.102;2022-07-21T05:16:12;98291.03;;;21.66;100.00
13661;BME280;6903;49.480;11.102;2022-07-21T05:18:37;98282.25;;;21.72;100.00
13661;BME280;6903;49.480;11.102;2022-07-21T05:21:03;98278.56;;;21.73;100.00
13661;BME280;6903;49.480;11.102;2022-07-21T05:23:29;98274.38;;;21.70;100.00
13661;BME280;6903;49.480;11.102;2022-07-21T05:25:54;98274.94;;;21.66;100.00
13661;BME280;6903;49.480;11.102;2022-07-21T05:28:20;98296.88;;;21.69;100.00
13661;BME280;6903;49.480;11.102;2022-07-21T05:30:45;98289.78;;;21.76;100.00
13661;BME280;6903;49.480;11.102;2022-07-21T05:33:10;98303.03;;;21.78;100.00
13661;BME280;6903;49.480;11.102;2022-07-21T05:35:36;98312.25;;;21.75;100.00
13661;BME280;6903;49.480;11.102;2022-07-21T05:38:01;98313.81;;;21.70;100.00
13661;BME280;6903;49.480;11.102;2022-07-21T05:40:27;98318.72;;;21.66;100.00
13661;BME280;6903;49.480;11.102;2022-07-21T05:42:52;98322.03;;;21.68;100.00
13661;BME280;6903;49.480;11.102;2022-07-21T05:45:18;98324.00;;;21.60;100.00
13661;BME280;6903;49.480;11.102;2022-07-21T05:47:43;98334.91;;;21.58;100.00
13661;BME280;6903;49.480;11.102;2022-07-21T05:50:09;98333.53;;;21.62;100.00
13661;BME280;6903;49.480;11.102;2022-07-21T05:52:34;98337.16;;;21.69;100.00
13661;BME280;6903;49.480;11.102;2022-07-21T05:55:00;98348.19;;;21.74;100.00
13661;BME280;6903;49.480;11.102;2022-07-21T05:57:25;98339.84;;;21.69;100.00
13661;BME280;6903;49.480;11.102;2022-07-21T05:59:51;98336.97;;;21.71;100.00
13661;BME280;6903;49.480;11.102;2022-07-21T06:02:16;98336.31;;;21.69;100.00
13661;BME280;6903;49.480;11.102;2022-07-21T06:04:41;98334.94;;;21.73;100.00
13661;BME280;6903;49.480;11.102;2022-07-21T06:07:07;98329.25;;;21.76;100.00
13661;BME280;6903;49.480;11.102;2022-07-21T06:09:32;98341.25;;;21.80;100.00
13661;BME280;6903;49.480;11.102;2022-07-21T06:11:58;98341.19;;;21.88;100.00
13661;BME280;6903;49.480;11.102;2022-07-21T06:14:23;98346.19;;;21.91;100.00
13661;BME280;6903;49.480;11.102;2022-07-21T06:16:49;98350.56;;;21.92;100.00
13661;BME280;6903;49.480;11.102;2022-07-21T06:19:15;98352.69;;;21.96;100.00
13661;BME280;6903;49.480;11.102;2022-07-21T06:21:40;98347.50;;;22.09;100.00
13661;BME280;6903;49.480;11.102;2022-07-21T06:24:07;98345.22;;;22.21;100.00
13661;BME280;6903;49.480;11.102;2022-07-21T06:26:32;98338.81;;;22.22;100.00
13661;BME280;6903;49.480;11.102;2022-07-21T06:28:58;98340.13;;;22.26;100.00
13661;BME280;6903;49.480;11.102;2022-07-21T06:31:23;98344.06;;;22.44;100.00
13661;BME280;6903;49.480;11.102;2022-07-21T06:33:49;98334.09;;;22.53;100.00
13661;BME280;6903;49.480;11.102;2022-07-21T06:36:14;98327.84;;;22.67;100.00
13661;BME280;6903;49.480;11.102;2022-07-21T06:38:39;98329.16;;;22.92;100.00
13661;BME280;6903;49.480;11.102;2022-07-21T06:41:05;98320.38;;;23.19;100.00
13661;BME280;6903;49.480;11.102;2022-07-21T06:43:31;98326.00;;;23.45;100.00
13661;BME280;6903;49.480;11.102;2022-07-21T06:45:57;98323.38;;;23.52;100.00
13661;BME280;6903;49.480;11.102;2022-07-21T06:48:22;98320.69;;;23.52;100.00
13661;BME280;6903;49.480;11.102;2022-07-21T06:50:48;98328.66;;;23.66;100.00
13661;BME280;6903;49.480;11.102;2022-07-21T06:53:13;98337.16;;;23.91;100.00
13661;BME280;6903;49.480;11.102;2022-07-21T06:55:40;98340.03;;;24.11;100.00
13661;BME280;6903;49.480;11.102;2022-07-21T06:58:17;98336.41;;;24.31;100.00
13661;BME280;6903;49.480;11.102;2022-07-21T07:00:44;98334.84;;;24.43;100.00
13661;BME280;6903;49.480;11.102;2022-07-21T07:03:11;98338.94;;;24.73;100.00
13661;BME280;6903;49.480;11.102;2022-07-21T07:05:37;98333.78;;;24.85;100.00
13661;BME280;6903;49.480;11.102;2022-07-21T07:08:03;98336.13;;;25.01;100.00
13661;BME280;6903;49.480;11.102;2022-07-21T07:10:29;98329.72;;;25.15;100.00
13661;BME280;6903;49.480;11.102;2022-07-21T07:12:54;98340.38;;;25.36;100.00
13661;BME280;6903;49.480;11.102;2022-07-21T07:15:21;98341.63;;;25.53;100.00
13661;BME280;6903;49.480;11.102;2022-07-21T07:17:46;98339.97;;;25.65;100.00
13661;BME280;6903;49.480;11.102;2022-07-21T07:20:12;98343.09;;;25.88;100.00
13661;BME280;6903;49.480;11.102;2022-07-21T07:22:37;98345.84;;;26.01;100.00
13661;BME280;6903;49.480;11.102;2022-07-21T07:25:03;98337.72;;;26.01;100.00
13661;BME280;6903;49.480;11.102;2022-07-21T07:27:28;98344.34;;;25.92;100.00
13661;BME280;6903;49.480;11.102;2022-07-21T07:29:54;98346.41;;;25.90;100.00
13661;BME280;6903;49.480;11.102;2022-07-21T07:32:19;98338.31;;;25.90;100.00
13661;BME280;6903;49.480;11.102;2022-07-21T07:34:44;98352.88;;;26.09;100.00
13661;BME280;6903;49.480;11.102;2022-07-21T07:37:09;98362.00;;;26.27;100.00
13661;BME280;6903;49.480;11.102;2022-07-21T07:39:35;98367.78;;;26.51;100.00
13661;BME280;6903;49.480;11.102;2022-07-21T07:42:03;98363.75;;;26.79;100.00
13661;BME280;6903;49.480;11.102;2022-07-21T07:44:28;98363.00;;;27.03;100.00
13661;BME280;6903;49.480;11.102;2022-07-21T07:46:54;98359.16;;;27.30;100.00
13661;BME280;6903;49.480;11.102;2022-07-21T07:49:19;98362.72;;;27.55;100.00
13661;BME280;6903;49.480;11.102;2022-07-21T07:51:44;98356.66;;;27.91;100.00
13661;BME280;6903;49.480;11.102;2022-07-21T07:54:10;98353.81;;;28.04;100.00
13661;BME280;6903;49.480;11.102;2022-07-21T07:56:35;98365.66;;;28.10;100.00
13661;BME280;6903;49.480;11.102;2022-07-21T07:59:00;98356.66;;;27.91;100.00
13661;BME280;6903;49.480;11.102;2022-07-21T08:01:26;98358.53;;;27.84;100.00
13661;BME280;6903;49.480;11.102;2022-07-21T08:03:51;98358.63;;;28.02;100.00
13661;BME280;6903;49.480;11.102;2022-07-21T08:06:16;98359.78;;;28.13;100.00
13661;BME280;6903;49.480;11.102;2022-07-21T08:08:42;98359.78;;;28.13;100.00
13661;BME280;6903;49.480;11.102;2022-07-21T08:11:07;98355.97;;;27.96;100.00
13661;BME280;6903;49.480;11.102;2022-07-21T08:13:33;98361.94;;;27.79;100.00
13661;BME280;6903;49.480;11.102;2022-07-21T08:15:59;98351.47;;;27.83;100.00
13661;BME280;6903;49.480;11.102;2022-07-21T08:18:24;98348.78;;;28.08;100.00
13661;BME280;6903;49.480;11.102;2022-07-21T08:20:50;98340.78;;;28.13;100.00
13661;BME280;6903;49.480;11.102;2022-07-21T08:23:15;98345.69;;;28.22;100.00
13661;BME280;6903;49.480;11.102;2022-07-21T08:25:42;98350.41;;;28.33;100.00
13661;BME280;6903;49.480;11.102;2022-07-21T08:28:08;98359.91;;;28.42;100.00
13661;BME280;6903;49.480;11.102;2022-07-21T08:30:35;98356.84;;;28.57;100.00
13661;BME280;6903;49.480;11.102;2022-07-21T08:33:01;98358.03;;;28.79;100.00
13661;BME280;6903;49.480;11.102;2022-07-21T08:35:27;98355.09;;;29.17;100.00
13661;BME280;6903;49.480;11.102;2022-07-21T08:37:55;98366.50;;;29.66;100.00
13661;BME280;6903;49.480;11.102;2022-07-21T08:40:23;98358.28;;;29.96;100.00
13661;BME280;6903;49.480;11.102;2022-07-21T08:42:48;98370.84;;;30.20;100.00
13661;BME280;6903;49.480;11.102;2022-07-21T08:45:14;98363.16;;;30.17;100.00
13661;BME280;6903;49.480;11.102;2022-07-21T08:47:40;98367.03;;;30.21;100.00
13661;BME280;6903;49.480;11.102;2022-07-21T08:50:07;98363.47;;;30.20;100.00
13661;BME280;6903;49.480;11.102;2022-07-21T08:52:33;98367.44;;;30.24;100.00
13661;BME280;6903;49.480;11.102;2022-07-21T08:54:59;98372.13;;;30.17;100.00
13661;BME280;6903;49.480;11.102;2022-07-21T08:57:25;98375.66;;;29.95;100.00
13661;BME280;6903;49.480;11.102;2022-07-21T08:59:50;98370.69;;;30.03;100.00
13661;BME280;6903;49.480;11.102;2022-07-21T09:02:29;98371.44;;;30.10;100.00
13661;BME280;6903;49.480;11.102;2022-07-21T09:04:55;98377.13;;;30.32;99.29
13661;BME280;6903;49.480;11.102;2022-07-21T09:07:21;98373.78;;;30.65;96.32
13661;BME280;6903;49.480;11.102;2022-07-21T09:09:58;98365.72;;;31.21;88.20
13661;BME280;6903;49.480;11.102;2022-07-21T09:12:24;98376.41;;;31.50;86.71
13661;BME280;6903;49.480;11.102;2022-07-21T09:14:50;98370.47;;;31.98;83.73
13661;BME280;6903;49.480;11.102;2022-07-21T09:17:17;98366.44;;;32.01;82.42
13661;BME280;6903;49.480;11.102;2022-07-21T09:19:45;98374.44;;;32.07;80.00
13661;BME280;6903;49.480;11.102;2022-07-21T09:22:14;98364.59;;;32.39;77.03
13661;BME280;6903;49.480;11.102;2022-07-21T09:24:48;98371.50;;;32.85;72.77
13661;BME280;6903;49.480;11.102;2022-07-21T09:27:21;98376.56;;;33.15;71.70
13661;BME280;6903;49.480;11.102;2022-07-21T09:29:49;98369.34;;;33.83;67.88
13661;BME280;6903;49.480;11.102;2022-07-21T09:32:20;98370.31;;;34.30;64.03
13661;BME280;6903;49.480;11.102;2022-07-21T09:34:51;98364.84;;;33.94;64.82
13661;BME280;6903;49.480;11.102;2022-07-21T09:37:18;98369.72;;;34.23;65.40
13661;BME280;6903;49.480;11.102;2022-07-21T09:39:52;98369.47;;;34.67;61.99
13661;BME280;6903;49.480;11.102;2022-07-21T09:42:20;98370.47;;;34.51;60.77
13661;BME280;6903;49.480;11.102;2022-07-21T09:44:50;98376.81;;;34.19;61.08
13661;BME280;6903;49.480;11.102;2022-07-21T09:47:19;98375.31;;;34.02;60.81
13661;BME280;6903;49.480;11.102;2022-07-21T09:49:45;98369.25;;;34.00;60.74
13661;BME280;6903;49.480;11.102;2022-07-21T09:52:22;98360.34;;;33.83;60.68
13661;BME280;6903;49.480;11.102;2022-07-21T09:54:49;98362.63;;;33.64;60.75
13661;BME280;6903;49.480;11.102;2022-07-21T09:57:16;98367.03;;;33.70;61.75
13661;BME280;6903;49.480;11.102;2022-07-21T09:59:46;98358.03;;;33.70;60.78
13661;BME280;6903;49.480;11.102;2022-07-21T10:02:22;98357.16;;;33.64;60.32
13661;BME280;6903;49.480;11.102;2022-07-21T10:05:02;98359.44;;;33.46;60.38
13661;BME280;6903;49.480;11.102;2022-07-21T10:07:29;98345.03;;;33.55;60.53
13661;BME280;6903;49.480;11.102;2022-07-21T10:09:55;98343.63;;;33.79;61.28
13661;BME280;6903;49.480;11.102;2022-07-21T10:12:22;98349.50;;;34.29;58.85
13661;BME280;6903;49.480;11.102;2022-07-21T10:14:49;98344.19;;;34.50;57.01
13661;BME280;6903;49.480;11.102;2022-07-21T10:17:16;98343.50;;;34.74;55.44
13661;BME280;6903;49.480;11.102;2022-07-21T10:19:53;98344.00;;;34.66;54.37
13661;BME280;6903;49.480;11.102;2022-07-21T10:22:35;98340.94;;;34.58;53.95
13661;BME280;6903;49.480;11.102;2022-07-21T10:25:06;98350.59;;;34.28;55.42
13661;BME280;6903;49.480;11.102;2022-07-21T10:27:31;98339.94;;;33.69;57.00
13661;BME280;6903;49.480;11.102;2022-07-21T10:29:59;98345.50;;;33.47;57.17
13661;BME280;6903;49.480;11.102;2022-07-21T10:32:32;98339.19;;;33.25;57.84
13661;BME280;6903;49.480;11.102;2022-07-21T10:35:01;98335.03;;;32.74;59.13
13661;BME280;6903;49.480;11.102;2022-07-21T10:40:04;98336.72;;;32.59;59.32
13661;BME280;6903;49.480;11.102;2022-07-21T10:42:30;98348.41;;;32.92;58.29
13661;BME280;6903;49.480;11.102;2022-07-21T10:44:56;98350.56;;;33.39;57.04
13661;BME280;6903;49.480;11.102;2022-07-21T10:47:22;98338.09;;;33.74;53.86
13661;BME280;6903;49.480;11.102;2022-07-21T10:55:13;98341.09;;;33.46;52.42
13661;BME280;6903;49.480;11.102;2022-07-21T10:57:47;98342.13;;;33.40;52.58
13661;BME280;6903;49.480;11.102;2022-07-21T11:02:56;98340.03;;;33.26;53.30
13661;BME280;6903;49.480;11.102;2022-07-21T11:05:23;98336.72;;;33.45;52.37
13661;BME280;6903;49.480;11.102;2022-07-21T11:10:38;98334.59;;;34.15;50.66
13661;BME280;6903;49.480;11.102;2022-07-21T11:13:04;98321.28;;;34.29;48.43
13661;BME280;6903;49.480;11.102;2022-07-21T11:18:21;98314.41;;;34.26;47.33
13661;BME280;6903;49.480;11.102;2022-07-21T11:23:47;98308.63;;;35.36;43.34
13661;BME280;6903;49.480;11.102;2022-07-21T11:26:15;98313.59;;;35.39;41.28
13661;BME280;6903;49.480;11.102;2022-07-21T11:28:42;98311.97;;;35.63;40.95
13661;BME280;6903;49.480;11.102;2022-07-21T11:31:14;98312.53;;;36.06;39.11
13661;BME280;6903;49.480;11.102;2022-07-21T11:33:41;98304.56;;;36.24;38.26
13661;BME280;6903;49.480;11.102;2022-07-21T11:36:07;98304.28;;;36.31;38.22
13661;BME280;6903;49.480;11.102;2022-07-21T11:38:33;98308.56;;;36.82;38.05
13661;BME280;6903;49.480;11.102;2022-07-21T11:41:18;98298.50;;;37.16;36.91
13661;BME280;6903;49.480;11.102;2022-07-21T11:43:44;98299.91;;;37.04;38.01
13661;BME280;6903;49.480;11.102;2022-07-21T11:46:10;98296.72;;;36.86;38.28
13661;BME280;6903;49.480;11.102;2022-07-21T11:48:35;98291.78;;;36.78;37.54
13661;BME280;6903;49.480;11.102;2022-07-21T11:51:03;98287.75;;;36.51;37.36
13661;BME280;6903;49.480;11.102;2022-07-21T11:53:29;98286.97;;;36.40;37.65
13661;BME280;6903;49.480;11.102;2022-07-21T11:55:54;98280.38;;;36.41;37.61
13661;BME280;6903;49.480;11.102;2022-07-21T11:58:20;98284.25;;;36.15;37.34
13661;BME280;6903;49.480;11.102;2022-07-21T12:00:46;98271.13;;;35.87;36.72
13661;BME280;6903;49.480;11.102;2022-07-21T12:03:12;98269.72;;;35.64;36.12
13661;BME280;6903;49.480;11.102;2022-07-21T12:05:39;98257.63;;;35.76;36.27
13661;BME280;6903;49.480;11.102;2022-07-21T12:08:05;98252.44;;;35.64;35.81
13661;BME280;6903;49.480;11.102;2022-07-21T12:10:30;98256.00;;;35.70;35.04
13661;BME280;6903;49.480;11.102;2022-07-21T12:13:04;98254.91;;;35.76;35.53
13661;BME280;6903;49.480;11.102;2022-07-21T12:15:34;98245.28;;;36.13;35.69
13661;BME280;6903;49.480;11.102;2022-07-21T12:18:19;98250.69;;;36.38;35.30
13661;BME280;6903;49.480;11.102;2022-07-21T12:20:45;98252.84;;;36.51;35.32
13661;BME280;6903;49.480;11.102;2022-07-21T12:25:46;98240.50;;;37.08;33.77
13661;BME280;6903;49.480;11.102;2022-07-21T12:28:12;98238.94;;;37.40;32.25
13661;BME280;6903;49.480;11.102;2022-07-21T12:30:42;98247.78;;;36.83;32.43
13661;BME280;6903;49.480;11.102;2022-07-21T12:35:41;98246.31;;;37.01;31.70
13661;BME280;6903;49.480;11.102;2022-07-21T12:38:14;98244.00;;;37.23;31.34
13661;BME280;6903;49.480;11.102;2022-07-21T12:40:43;98245.56;;;36.90;31.57
13661;BME280;6903;49.480;11.102;2022-07-21T12:43:15;98246.00;;;37.08;31.61
13661;BME280;6903;49.480;11.102;2022-07-21T12:45:49;98243.81;;;37.48;31.14
13661;BME280;6903;49.480;11.102;2022-07-21T12:48:18;98232.03;;;37.38;30.18
13661;BME280;6903;49.480;11.102;2022-07-21T12:51:06;98245.41;;;37.11;31.28
13661;BME280;6903;49.480;11.102;2022-07-21T12:53:34;98235.06;;;36.97;31.41
13661;BME280;6903;49.480;11.102;2022-07-21T12:56:00;98239.22;;;36.90;32.09
13661;BME280;6903;49.480;11.102;2022-07-21T12:58:26;98242.28;;;36.83;31.70
13661;BME280;6903;49.480;11.102;2022-07-21T13:00:51;98245.09;;;36.63;31.93
13661;BME280;6903;49.480;11.102;2022-07-21T13:03:17;98235.63;;;36.36;32.24
13661;BME280;6903;49.480;11.102;2022-07-21T13:05:42;98241.66;;;36.23;32.30
13661;BME280;6903;49.480;11.102;2022-07-21T13:08:08;98237.63;;;35.40;32.78
13661;BME280;6903;49.480;11.102;2022-07-21T13:10:33;98223.81;;;34.95;33.94
13661;BME280;6903;49.480;11.102;2022-07-21T13:12:59;98231.44;;;34.78;34.28
13661;BME280;6903;49.480;11.102;2022-07-21T13:15:25;98221.09;;;35.10;34.20